Time;durP1;ratioP1;P1;durP2;ratioP2;P2;SDS_P1;SDS_P2;PMS_P1;PMS_P2;Temp;Humidity;BMP_temperature;BMP_pressure;BME280_temperature;BME280_humidity;BME280_pressure;Samples;Min_cycle;Max_cycle;Signal;HPM_P1;HPM_P2
2022/05/30 00:02:02;;;;;;;8.10;7.68;;;;;;;21.11;68.30;101453.66;5014170;28;20026;-58
2022/05/30 00:04:27;;;;;;;7.53;7.22;;;;;;;21.17;67.55;101452.97;5015175;28;20044;-58
2022/05/30 00:06:53;;;;;;;7.35;7.05;;;;;;;21.15;67.12;101453.13;5015307;28;20116;-58
2022/05/30 00:09:18;;;;;;;7.40;7.10;;;;;;;21.15;68.04;101450.41;5015180;28;20026;-57
2022/05/30 00:11:43;;;;;;;8.05;7.65;;;;;;;21.17;67.87;101462.03;5015189;28;20030;-58
2022/05/30 00:14:08;;;;;;;7.10;6.80;;;;;;;21.14;67.36;101448.69;5015113;28;20466;-58
2022/05/30 00:16:34;;;;;;;7.32;7.03;;;;;;;21.17;66.74;101459.31;5014925;28;20036;-58
2022/05/30 00:19:00;;;;;;;7.20;6.90;;;;;;;21.21;66.93;101449.72;5018264;28;20469;-58
2022/05/30 00:21:26;;;;;;;7.82;7.53;;;;;;;21.22;67.91;101454.16;5014670;28;20046;-58
2022/05/30 00:23:55;;;;;;;7.25;6.95;;;;;;;21.22;67.29;101456.88;5014921;28;20465;-58
2022/05/30 00:26:22;;;;;;;7.03;6.72;;;;;;;21.21;66.97;101446.97;5014898;28;20033;-58
2022/05/30 00:28:47;;;;;;;7.10;6.80;;;;;;;21.23;66.48;101458.59;5013643;28;20034;-58
2022/05/30 00:31:15;;;;;;;7.57;7.28;;;;;;;21.23;66.58;101455.84;5014791;28;20025;-58
2022/05/30 00:33:42;;;;;;;6.97;6.68;;;;;;;21.20;66.18;101463.56;5014610;28;20700;-58
2022/05/30 00:36:07;;;;;;;7.63;7.30;;;;;;;21.25;66.72;101456.56;5014777;28;20029;-58
2022/05/30 00:38:33;;;;;;;7.20;6.90;;;;;;;21.26;66.89;101452.78;5014508;28;20029;-58
2022/05/30 00:40:58;;;;;;;7.15;6.85;;;;;;;21.24;65.44;101460.31;5013358;28;20025;-58
2022/05/30 00:43:41;;;;;;;7.40;7.10;;;;;;;21.23;66.13;101458.59;5014872;28;20029;-58
2022/05/30 00:46:16;;;;;;;7.43;7.13;;;;;;;21.24;66.00;101463.06;5014531;28;20032;-58
2022/05/30 00:48:46;;;;;;;7.25;6.95;;;;;;;21.27;65.74;101462.72;5014503;28;20021;-58
2022/05/30 00:51:16;;;;;;;7.85;7.55;;;;;;;21.22;65.39;101462.34;5014805;28;20409;-58
2022/05/30 00:53:44;;;;;;;7.35;7.05;;;;;;;21.28;65.66;101467.16;5014306;28;20101;-58
2022/05/30 00:56:13;;;;;;;8.02;7.63;;;;;;;21.31;65.70;101468.66;5014412;28;20029;-58
2022/05/30 00:58:44;;;;;;;7.82;7.50;;;;;;;21.25;65.41;101472.13;5014425;28;20025;-58
2022/05/30 01:01:10;;;;;;;7.82;7.45;;;;;;;21.25;65.29;101467.50;5014274;28;20034;-58
2022/05/30 01:06:33;;;;;;;7.50;7.20;;;;;;;21.28;65.50;101456.19;5014371;28;20056;-58
2022/05/30 01:09:07;;;;;;;7.22;6.93;;;;;;;21.29;65.47;101463.38;5014101;28;20492;-58
2022/05/30 01:11:50;;;;;;;7.82;7.50;;;;;;;21.29;65.51;101465.25;5013905;28;20081;-58
2022/05/30 01:14:15;;;;;;;7.85;7.50;;;;;;;21.29;65.31;101457.91;5012637;28;20022;-58
2022/05/30 01:16:41;;;;;;;8.05;7.65;;;;;;;21.27;65.59;101465.44;5014254;28;20033;-58
2022/05/30 01:19:15;;;;;;;8.18;7.78;;;;;;;21.24;65.54;101470.38;5013922;28;20021;-58
2022/05/30 01:22:09;;;;;;;7.70;7.30;;;;;;;21.28;65.51;101469.88;5013624;28;20053;-58
2022/05/30 01:24:51;;;;;;;7.73;7.43;;;;;;;21.25;65.10;101467.50;5013681;28;20072;-58
2022/05/30 01:27:40;;;;;;;8.70;8.20;;;;;;;21.24;65.01;101460.31;5014674;28;20283;-58
2022/05/30 01:30:10;;;;;;;7.57;7.22;;;;;;;21.31;65.81;101465.94;5013712;28;20038;-58
2022/05/30 01:32:35;;;;;;;7.60;7.30;;;;;;;21.29;65.26;101463.38;5013661;28;20076;-58
2022/05/30 01:35:01;;;;;;;7.50;7.20;;;;;;;21.26;65.67;101469.22;5013602;28;20414;-58
2022/05/30 01:37:27;;;;;;;7.75;7.45;;;;;;;21.27;65.78;101470.06;5013528;28;20053;-58
2022/05/30 01:39:52;;;;;;;7.75;7.35;;;;;;;21.29;65.87;101479.78;5013616;28;20022;-58
2022/05/30 01:42:18;;;;;;;7.72;7.43;;;;;;;21.29;65.37;101479.78;5013486;28;20346;-58
2022/05/30 01:44:44;;;;;;;7.75;7.35;;;;;;;21.30;64.88;101476.03;5013559;28;20021;-58
2022/05/30 01:47:10;;;;;;;7.88;7.45;;;;;;;21.25;65.62;101474.84;5013543;28;20522;-58
2022/05/30 01:49:35;;;;;;;7.80;7.40;;;;;;;21.29;65.15;101479.78;5013316;28;20030;-58
2022/05/30 01:52:01;;;;;;;7.72;7.32;;;;;;;21.30;65.47;101480.63;5013376;28;20465;-58
2022/05/30 01:54:26;;;;;;;7.97;7.53;;;;;;;21.31;65.96;101483.19;5013146;28;20524;-58
2022/05/30 01:56:51;;;;;;;7.68;7.22;;;;;;;21.28;65.54;101488.16;5013308;28;20428;-58
2022/05/30 01:59:16;;;;;;;7.45;7.15;;;;;;;21.25;65.02;101494.00;5013161;28;20049;-59
2022/05/30 02:01:44;;;;;;;7.40;7.10;;;;;;;21.26;65.68;101495.69;5013254;28;20033;-59
2022/05/30 02:04:10;;;;;;;7.80;7.50;;;;;;;21.28;65.32;101497.22;5013205;28;20105;-59
2022/05/30 02:06:35;;;;;;;7.97;7.57;;;;;;;21.28;65.13;101499.97;5013309;28;20109;-58
2022/05/30 02:09:02;;;;;;;7.35;7.05;;;;;;;21.31;65.88;101507.81;5012256;28;20064;-58
2022/05/30 02:11:27;;;;;;;8.00;7.57;;;;;;;21.28;65.50;101499.97;5012521;28;20056;-58
2022/05/30 02:13:53;;;;;;;7.50;7.20;;;;;;;21.29;65.14;101507.13;5012907;28;20265;-58
2022/05/30 02:19:04;;;;;;;8.10;7.78;;;;;;;21.30;65.69;101503.38;5013416;28;20117;-58
2022/05/30 02:21:31;;;;;;;8.35;7.95;;;;;;;21.23;65.75;101512.44;5012645;28;20049;-58
2022/05/30 02:23:57;;;;;;;7.65;7.35;;;;;;;21.28;65.51;101515.53;5012958;28;20060;-58
2022/05/30 02:26:22;;;;;;;7.80;7.50;;;;;;;21.28;65.39;101510.91;5012699;28;20025;-58
2022/05/30 02:28:48;;;;;;;7.65;7.35;;;;;;;21.29;64.99;101512.59;5012904;28;20038;-58
2022/05/30 02:31:14;;;;;;;7.50;7.10;;;;;;;21.27;65.55;101516.56;5011517;28;20056;-58
2022/05/30 02:36:44;;;;;;;7.40;7.10;;;;;;;21.27;65.89;101516.56;5012694;28;20029;-59
2022/05/30 02:39:35;;;;;;;7.50;7.20;;;;;;;21.29;65.55;101518.06;5012665;28;20030;-58
2022/05/30 02:42:01;;;;;;;7.50;7.20;;;;;;;21.30;66.04;101508.84;5011503;28;20042;-58
2022/05/30 02:44:26;;;;;;;7.30;7.00;;;;;;;21.26;65.37;101507.50;5012568;28;20091;-58
2022/05/30 02:46:54;;;;;;;7.45;7.15;;;;;;;21.28;65.98;101516.38;5020728;28;20029;-57
2022/05/30 02:49:20;;;;;;;7.40;7.10;;;;;;;21.26;65.57;101518.44;5015363;28;20642;-58
2022/05/30 02:51:46;;;;;;;7.65;7.35;;;;;;;21.31;65.42;101516.03;5012571;28;20079;-58
2022/05/30 02:54:13;;;;;;;7.20;6.90;;;;;;;21.30;65.31;101518.94;5012559;28;20553;-59
2022/05/30 02:56:39;;;;;;;7.43;7.13;;;;;;;21.31;65.40;101526.97;5012495;28;20485;-59
2022/05/30 02:59:05;;;;;;;7.32;7.03;;;;;;;21.29;65.99;101523.53;5012615;28;20048;-58
2022/05/30 03:01:31;;;;;;;7.57;7.28;;;;;;;21.31;65.32;101469.53;5012386;28;20022;-58
2022/05/30 03:04:07;;;;;;;7.10;6.80;;;;;;;21.29;65.83;101471.59;5012607;28;20478;-58
2022/05/30 03:06:33;;;;;;;7.72;7.43;;;;;;;21.32;66.47;101473.09;5012400;28;20032;-59
2022/05/30 03:08:58;;;;;;;7.43;7.13;;;;;;;21.33;66.94;101567.81;5013088;28;20104;-58
2022/05/30 03:11:24;;;;;;;7.55;7.25;;;;;;;21.32;67.24;101546.97;5012308;28;20449;-58
2022/05/30 03:13:50;;;;;;;7.55;7.25;;;;;;;21.27;66.51;101549.38;5012391;28;20075;-58
2022/05/30 03:16:15;;;;;;;7.07;6.78;;;;;;;21.28;66.47;101551.06;5012420;28;20022;-59
2022/05/30 03:18:41;;;;;;;7.40;7.05;;;;;;;21.31;66.76;101554.31;5012509;28;20420;-57
2022/05/30 03:21:07;;;;;;;7.63;7.32;;;;;;;21.29;66.17;101548.16;5010971;28;20022;-58
2022/05/30 03:23:32;;;;;;;7.10;6.80;;;;;;;21.32;65.60;101536.00;5012196;28;20029;-58
2022/05/30 03:25:58;;;;;;;7.18;6.88;;;;;;;21.32;65.94;101534.13;5016073;28;20029;-58
2022/05/30 03:28:23;;;;;;;7.38;7.07;;;;;;;21.29;65.92;101534.50;5016217;28;20449;-59
2022/05/30 03:30:48;;;;;;;7.47;7.18;;;;;;;21.32;66.56;101544.22;5016441;28;20046;-56
2022/05/30 03:33:14;;;;;;;7.40;7.10;;;;;;;21.32;66.87;101538.75;5018501;28;20037;-58
2022/05/30 03:35:39;;;;;;;6.80;6.50;;;;;;;21.30;66.63;101538.94;5014490;28;20063;-58
2022/05/30 03:38:06;;;;;;;7.20;6.90;;;;;;;21.32;66.78;101544.22;5015864;28;20469;-58
2022/05/30 03:40:31;;;;;;;7.25;6.95;;;;;;;21.35;66.63;101554.84;5014366;28;20033;-58
2022/05/30 03:42:57;;;;;;;7.57;7.28;;;;;;;21.30;66.99;101552.59;5015814;28;20493;-58
2022/05/30 03:45:22;;;;;;;8.02;7.72;;;;;;;21.31;66.58;101556.19;5015566;28;20140;-58
2022/05/30 03:47:49;;;;;;;7.50;7.10;;;;;;;21.34;67.08;101538.59;5015838;28;20034;-58
2022/05/30 03:50:23;;;;;;;7.20;6.90;;;;;;;21.36;66.84;101555.69;5015578;28;20385;-58
2022/05/30 03:52:49;;;;;;;7.35;7.05;;;;;;;21.34;66.98;101550.41;5015532;28;20029;-58
2022/05/30 03:55:17;;;;;;;7.28;6.97;;;;;;;21.30;66.93;101558.06;5015455;28;20026;-58
2022/05/30 03:57:43;;;;;;;7.82;7.53;;;;;;;21.32;66.86;101556.00;5015690;28;20113;-58
2022/05/30 04:00:11;;;;;;;7.20;6.90;;;;;;;21.34;67.22;101541.34;5015418;28;20109;-58
2022/05/30 04:02:37;;;;;;;0.25;0.22;;;;;;;21.67;68.34;101515.59;5015279;28;20172;-58
2022/05/30 04:05:03;;;;;;;0.20;0.20;;;;;;;22.05;66.58;101556.84;5015346;28;20053;-58
2022/05/30 04:07:29;;;;;;;0.20;0.20;;;;;;;22.31;66.41;101562.00;5015171;28;20022;-55
2022/05/30 04:09:54;;;;;;;0.60;0.25;;;;;;;22.51;66.95;101580.56;5018893;28;20421;-58
2022/05/30 04:12:20;;;;;;;0.20;0.20;;;;;;;22.66;66.44;101587.97;5015151;28;20536;-58
2022/05/30 04:14:53;;;;;;;0.20;0.20;;;;;;;22.78;66.47;101581.88;5015069;28;20532;-58
2022/05/30 04:17:18;;;;;;;0.25;0.20;;;;;;;22.94;66.87;101575.47;5015297;28;20037;-58
2022/05/30 04:19:43;;;;;;;0.20;0.20;;;;;;;23.06;66.37;101568.50;5015060;28;20030;-58
2022/05/30 04:22:09;;;;;;;0.40;0.20;;;;;;;23.22;67.31;101566.66;5014825;28;20042;-58
2022/05/30 04:24:35;;;;;;;0.45;0.20;;;;;;;23.30;67.78;101575.63;5015016;28;20050;-58
2022/05/30 04:27:00;;;;;;;0.30;0.20;;;;;;;23.45;67.34;101577.56;5014892;28;20592;-58
2022/05/30 04:29:26;;;;;;;0.10;0.10;;;;;;;23.56;67.79;101582.59;5014796;28;20034;-58
2022/05/30 04:31:51;;;;;;;0.10;0.10;;;;;;;23.62;68.34;101584.59;5015108;28;20476;-58
2022/05/30 04:34:16;;;;;;;1.30;0.20;;;;;;;23.71;68.83;101578.00;5014519;28;20022;-58
2022/05/30 04:36:41;;;;;;;0.43;0.38;;;;;;;23.77;68.37;101579.97;5014351;28;20030;-58
2022/05/30 04:39:07;;;;;;;0.20;0.20;;;;;;;23.91;68.57;101594.75;5014650;28;20413;-58
2022/05/30 04:41:32;;;;;;;0.20;0.20;;;;;;;23.98;68.17;101592.94;5014475;28;20026;-58
2022/05/30 04:43:59;;;;;;;1.10;0.20;;;;;;;24.02;69.10;101586.03;5013343;28;20159;-58
2022/05/30 04:46:25;;;;;;;0.98;0.15;;;;;;;24.11;68.68;101595.00;5014706;28;20034;-58
2022/05/30 04:48:50;;;;;;;0.17;0.10;;;;;;;23.94;69.02;101602.59;5017473;28;20068;-59
2022/05/30 04:51:15;;;;;;;0.10;0.10;;;;;;;23.39;68.36;101601.13;5014578;28;20030;-58
2022/05/30 04:53:41;;;;;;;0.10;0.10;;;;;;;23.04;66.59;101603.50;5014582;28;20226;-58
2022/05/30 04:56:06;;;;;;;1.00;0.10;;;;;;;22.79;65.08;101610.16;5014422;28;20029;-58
2022/05/30 04:58:36;;;;;;;1.33;0.10;;;;;;;22.58;63.78;101608.06;5014189;28;20029;-58
2022/05/30 05:01:05;;;;;;;0.20;0.10;;;;;;;22.36;61.58;101620.72;5014329;28;20026;-58
2022/05/30 05:03:32;;;;;;;0.28;0.15;;;;;;;22.25;61.39;101623.84;5014075;28;20030;-58
2022/05/30 05:06:04;;;;;;;0.13;0.10;;;;;;;21.97;60.38;101620.66;5014421;28;20032;-58
2022/05/30 05:08:51;;;;;;;0.95;0.10;;;;;;;21.92;59.64;101615.72;5014054;28;20053;-58
2022/05/30 05:11:25;;;;;;;0.43;0.20;;;;;;;21.87;59.82;101609.06;5014073;28;20109;-58
2022/05/30 05:13:51;;;;;;;0.30;0.28;;;;;;;21.75;60.40;101608.59;5014291;28;20029;-59
2022/05/30 05:16:19;;;;;;;0.30;0.30;;;;;;;21.67;59.69;101608.63;5014024;28;20528;-58
2022/05/30 05:18:45;;;;;;;0.10;0.10;;;;;;;21.61;59.07;101610.16;5014268;28;20462;-58
2022/05/30 05:21:22;;;;;;;0.25;0.20;;;;;;;21.51;59.09;101608.66;5014006;28;20021;-58
2022/05/30 05:23:48;;;;;;;0.10;0.10;;;;;;;21.49;60.00;101605.22;5013871;28;20099;-58
2022/05/30 05:26:15;;;;;;;0.25;0.25;;;;;;;21.48;58.60;101609.84;5013782;28;20029;-58
2022/05/30 05:28:40;;;;;;;0.28;0.25;;;;;;;21.41;59.75;101618.94;5013760;28;20424;-58
2022/05/30 05:31:07;;;;;;;0.20;0.10;;;;;;;21.39;59.06;101613.63;5016148;28;20085;-58
2022/05/30 05:33:34;;;;;;;0.08;0.08;;;;;;;21.40;59.83;101612.59;5014448;28;20576;-58
2022/05/30 05:35:59;;;;;;;0.25;0.10;;;;;;;21.39;58.43;101618.25;5012398;28;20420;-58
2022/05/30 05:38:24;;;;;;;0.25;0.10;;;;;;;21.44;59.34;101626.78;5013487;28;20025;-58
2022/05/30 05:40:50;;;;;;;0.20;0.20;;;;;;;21.33;58.61;101630.72;5013604;28;20034;-59
2022/05/30 05:43:16;;;;;;;0.47;0.25;;;;;;;21.26;58.94;101616.88;5013528;28;20025;-58
2022/05/30 05:45:43;;;;;;;0.10;0.10;;;;;;;21.26;58.90;101616.88;5013451;28;20107;-58
2022/05/30 05:48:09;;;;;;;0.63;0.30;;;;;;;21.32;60.23;101618.91;5012905;28;20108;-58
2022/05/30 05:50:41;;;;;;;0.32;0.20;;;;;;;21.43;60.23;101619.59;5013544;28;20026;-58
2022/05/30 05:53:07;;;;;;;0.32;0.22;;;;;;;21.43;59.27;101617.72;5013368;28;20101;-58
2022/05/30 05:55:32;;;;;;;0.25;0.25;;;;;;;21.58;59.23;101618.72;5013168;28;20484;-58
2022/05/30 05:57:57;;;;;;;0.45;0.20;;;;;;;21.47;60.06;101620.97;5013348;28;20053;-58
2022/05/30 06:00:23;;;;;;;0.73;0.20;;;;;;;21.45;60.38;101620.28;5013115;28;20413;-58
2022/05/30 06:02:48;;;;;;;0.70;0.20;;;;;;;21.43;59.19;101623.19;5013536;28;20085;-58
2022/05/30 06:05:14;;;;;;;0.25;0.25;;;;;;;21.44;59.34;101629.53;5013259;28;20064;-58
2022/05/30 06:07:41;;;;;;;0.63;0.30;;;;;;;21.44;60.68;101627.63;5011771;28;20034;-58
2022/05/30 06:10:10;;;;;;;0.30;0.20;;;;;;;21.47;59.99;101629.16;5013161;28;20541;-58
2022/05/30 06:12:37;;;;;;;0.20;0.20;;;;;;;21.48;59.77;101636.34;5012764;28;20037;-58
2022/05/30 06:15:04;;;;;;;0.15;0.15;;;;;;;21.48;59.91;101633.59;5012986;28;20116;-58
2022/05/30 06:17:32;;;;;;;0.20;0.10;;;;;;;21.45;60.93;101632.06;5015802;28;20057;-58
2022/05/30 06:19:58;;;;;;;0.50;0.20;;;;;;;21.54;59.23;101630.19;5013184;28;20057;-57
2022/05/30 06:22:23;;;;;;;0.40;0.15;;;;;;;21.51;61.79;101641.50;5012908;28;20081;-58
2022/05/30 06:24:49;;;;;;;0.20;0.20;;;;;;;21.45;60.25;101631.22;5012890;28;20413;-58
2022/05/30 06:27:17;;;;;;;0.45;0.30;;;;;;;21.42;60.93;101634.31;5012899;28;20022;-58
2022/05/30 06:29:42;;;;;;;0.32;0.28;;;;;;;21.47;60.37;101640.09;5012832;28;20493;-58
2022/05/30 06:32:08;;;;;;;0.60;0.30;;;;;;;21.48;59.96;101639.06;5013118;28;20126;-58
2022/05/30 06:34:34;;;;;;;0.20;0.20;;;;;;;21.48;59.71;101641.81;5012569;28;20565;-58
2022/05/30 06:36:59;;;;;;;0.55;0.10;;;;;;;21.52;59.73;101648.69;5012679;28;20109;-58
2022/05/30 06:39:24;;;;;;;0.30;0.30;;;;;;;21.49;59.95;101649.00;5012531;28;20033;-59
2022/05/30 06:41:49;;;;;;;1.23;0.50;;;;;;;21.54;59.75;101652.09;5013363;28;20034;-59
2022/05/30 06:44:15;;;;;;;0.20;0.08;;;;;;;21.52;61.16;101644.06;5012742;28;20030;-59
2022/05/30 06:46:40;;;;;;;0.82;0.40;;;;;;;21.48;59.53;101636.34;5012855;28;20049;-58
2022/05/30 06:49:06;;;;;;;0.20;0.10;;;;;;;21.49;59.23;101643.53;5012839;28;20034;-58
2022/05/30 06:51:36;;;;;;;0.40;0.10;;;;;;;21.45;60.73;101642.16;5012468;28;20385;-58
2022/05/30 06:54:04;;;;;;;0.10;0.10;;;;;;;21.48;61.06;101647.28;5012569;28;20438;-58
2022/05/30 06:56:32;;;;;;;0.20;0.20;;;;;;;21.43;60.50;101645.06;5012523;28;20034;-59
2022/05/30 06:58:58;;;;;;;0.17;0.17;;;;;;;21.41;60.91;101652.59;5014932;28;20384;-59
2022/05/30 07:01:29;;;;;;;0.10;0.03;;;;;;;21.44;60.76;101652.25;5017871;28;20034;-58
2022/05/30 07:03:54;;;;;;;0.30;0.10;;;;;;;21.51;60.66;101657.91;5016645;28;20035;-58
2022/05/30 07:06:29;;;;;;;0.17;0.10;;;;;;;21.42;62.25;101658.94;5016355;28;20033;-58
2022/05/30 07:08:55;;;;;;;0.22;0.22;;;;;;;21.39;59.89;101659.28;5016472;28;20042;-59
2022/05/30 07:11:22;;;;;;;2.35;0.50;;;;;;;21.48;62.48;101660.97;5016203;28;20052;-59
2022/05/30 07:13:48;;;;;;;0.73;0.22;;;;;;;21.47;59.95;101656.53;5016312;28;20026;-58
2022/05/30 07:16:14;;;;;;;0.50;0.20;;;;;;;21.45;59.82;101664.06;5015199;28;20096;-58
2022/05/30 07:18:42;;;;;;;0.73;0.20;;;;;;;21.45;60.38;101655.84;5016184;28;20026;-58
2022/05/30 07:21:13;;;;;;;0.28;0.15;;;;;;;21.48;60.24;101652.75;5016037;28;20064;-59
2022/05/30 07:23:38;;;;;;;0.13;0.10;;;;;;;21.45;59.72;101658.59;5016096;28;20139;-58
2022/05/30 07:26:07;;;;;;;0.88;0.55;;;;;;;21.59;60.59;101666.09;5016395;28;20458;-58
2022/05/30 07:28:33;;;;;;;0.55;0.30;;;;;;;21.49;61.11;101659.94;5015860;28;20096;-58
2022/05/30 07:31:06;;;;;;;0.28;0.28;;;;;;;21.60;62.42;101657.72;5014943;28;20109;-58
2022/05/30 07:33:33;;;;;;;0.63;0.43;;;;;;;21.57;60.76;101665.41;5015731;28;20033;-58
2022/05/30 07:35:59;;;;;;;0.43;0.28;;;;;;;21.61;60.25;101658.56;5015953;28;20026;-58
2022/05/30 07:38:24;;;;;;;0.15;0.10;;;;;;;21.53;60.90;101655.84;5015632;28;20573;-58
2022/05/30 07:40:50;;;;;;;0.20;0.13;;;;;;;21.46;60.47;101661.13;5018389;28;20038;-59
2022/05/30 07:43:15;;;;;;;1.30;0.52;;;;;;;21.57;61.28;101657.22;5015685;28;20024;-58
2022/05/30 07:45:40;;;;;;;0.38;0.20;;;;;;;21.53;60.29;101662.19;5014402;28;20022;-59
2022/05/30 07:48:07;;;;;;;0.40;0.20;;;;;;;21.49;60.58;101654.47;5015946;28;20030;-58
2022/05/30 07:50:34;;;;;;;0.22;0.22;;;;;;;21.57;60.27;101657.22;5015503;28;20041;-58
2022/05/30 07:52:59;;;;;;;0.20;0.20;;;;;;;21.53;59.83;101655.84;5015832;28;20033;-59
2022/05/30 07:55:24;;;;;;;0.63;0.22;;;;;;;21.44;61.76;101657.72;5015364;28;20021;-59
2022/05/30 07:57:54;;;;;;;0.50;0.20;;;;;;;21.46;60.60;101652.94;5015547;28;20363;-60
2022/05/30 08:00:22;;;;;;;0.93;0.20;;;;;;;21.43;60.26;101656.03;5015741;28;20033;-58
2022/05/30 08:02:48;;;;;;;0.32;0.17;;;;;;;21.41;60.24;101654.50;5015436;28;20033;-59
2022/05/30 08:05:15;;;;;;;0.20;0.20;;;;;;;21.53;61.27;101655.84;5015424;28;20045;-59
2022/05/30 08:07:42;;;;;;;0.40;0.20;;;;;;;21.47;60.69;101662.00;5015266;28;20026;-58
2022/05/30 08:10:08;;;;;;;0.55;0.30;;;;;;;21.40;60.51;101661.00;5014377;28;20465;-58
2022/05/30 08:12:33;;;;;;;0.20;0.20;;;;;;;21.52;59.74;101656.88;5015380;28;20029;-59
2022/05/30 08:14:59;;;;;;;0.65;0.22;;;;;;;21.56;61.79;101660.97;5015371;28;20458;-58
2022/05/30 08:17:24;;;;;;;0.20;0.20;;;;;;;21.50;60.04;101661.66;5014948;28;20029;-58
2022/05/30 08:19:50;;;;;;;0.35;0.28;;;;;;;21.49;59.79;101662.66;5015175;28;20030;-59
2022/05/30 08:22:16;;;;;;;0.20;0.20;;;;;;;21.39;60.83;101667.47;5016289;28;20042;-58
2022/05/30 08:24:44;;;;;;;0.52;0.43;;;;;;;21.43;61.09;101668.84;5015268;28;20022;-59
2022/05/30 08:27:10;;;;;;;0.32;0.20;;;;;;;21.49;62.11;101668.16;5015299;28;20037;-58
2022/05/30 08:29:36;;;;;;;0.30;0.20;;;;;;;21.47;60.63;101667.47;5014740;28;20032;-58
2022/05/30 08:32:01;;;;;;;0.68;0.20;;;;;;;21.48;61.36;101671.91;5014928;28;20028;-58
2022/05/30 08:34:26;;;;;;;0.98;0.10;;;;;;;21.55;60.24;101660.13;5014497;28;20484;-58
2022/05/30 08:36:52;;;;;;;0.95;0.22;;;;;;;21.49;61.44;101679.09;5014749;28;20072;-59
2022/05/30 08:42:03;;;;;;;1.20;0.28;;;;;;;21.43;61.76;101663.38;5014880;28;20117;-59
2022/05/30 08:44:30;;;;;;;1.35;0.30;;;;;;;21.55;61.61;101667.47;5014493;28;20030;-58
2022/05/30 08:47:06;;;;;;;0.38;0.20;;;;;;;21.48;62.18;101658.22;5014559;28;20454;-58
2022/05/30 08:49:46;;;;;;;0.70;0.32;;;;;;;21.52;59.96;101668.69;5014391;28;20108;-58
2022/05/30 08:52:43;;;;;;;1.00;0.30;;;;;;;21.51;61.45;101674.31;5014441;28;20033;-59
2022/05/30 08:55:43;;;;;;;0.38;0.20;;;;;;;21.48;60.25;101674.63;5014415;28;20029;-59
2022/05/30 08:58:36;;;;;;;0.10;0.10;;;;;;;21.48;61.21;101669.16;5014382;28;20029;-58
2022/05/30 09:01:07;;;;;;;1.88;0.30;;;;;;;21.53;61.65;101673.13;5014293;28;20025;-58
2022/05/30 09:04:06;;;;;;;0.35;0.20;;;;;;;21.49;60.80;101670.88;5016368;28;20052;-57
2022/05/30 09:06:35;;;;;;;0.40;0.10;;;;;;;21.45;62.01;101669.53;5014578;28;20032;-59
2022/05/30 09:09:10;;;;;;;0.80;0.30;;;;;;;21.42;60.76;101669.88;5014686;28;20028;-59
2022/05/30 09:11:54;;;;;;;0.70;0.30;;;;;;;21.55;60.26;101672.94;5013906;28;20117;-59
2022/05/30 09:14:38;;;;;;;0.13;0.10;;;;;;;21.50;62.03;101667.13;5013879;28;20026;-59
2022/05/30 09:17:10;;;;;;;1.38;0.20;;;;;;;21.56;61.88;101670.03;5014034;28;20109;-58
2022/05/30 09:19:35;;;;;;;0.20;0.20;;;;;;;21.49;61.25;101670.88;5014084;28;20033;-59
2022/05/30 09:22:01;;;;;;;1.65;0.40;;;;;;;21.51;60.73;101668.84;5013922;28;20057;-59
2022/05/30 09:24:30;;;;;;;0.50;0.20;;;;;;;21.52;60.65;101670.56;5013725;28;20014;-59
2022/05/30 09:26:57;;;;;;;1.05;0.20;;;;;;;21.52;59.40;101665.94;5014125;28;20022;-59
2022/05/30 09:29:28;;;;;;;0.35;0.20;;;;;;;21.56;62.50;101661.81;5013642;28;20026;-59
2022/05/30 09:32:09;;;;;;;0.20;0.20;;;;;;;21.56;62.34;101666.44;5013716;28;20489;-59
2022/05/30 09:34:37;;;;;;;0.88;0.32;;;;;;;21.49;60.29;101665.41;5013616;28;20033;-59
2022/05/30 09:37:03;;;;;;;0.73;0.30;;;;;;;21.52;61.03;101673.31;5013875;28;20096;-58
2022/05/30 09:39:28;;;;;;;1.08;0.30;;;;;;;21.47;61.07;101676.53;5013480;28;20072;-58
2022/05/30 09:41:57;;;;;;;1.48;0.20;;;;;;;21.53;62.58;101672.25;5013564;28;20382;-59
2022/05/30 09:44:26;;;;;;;1.08;0.22;;;;;;;21.44;60.96;101670.56;5013349;28;20029;-58
2022/05/30 09:46:57;;;;;;;0.30;0.30;;;;;;;21.50;61.31;101667.13;5013494;28;20060;-58
2022/05/30 09:49:24;;;;;;;1.10;0.40;;;;;;;21.50;60.38;101668.00;5013264;28;20026;-58
2022/05/30 09:52:00;;;;;;;1.17;0.25;;;;;;;21.53;60.13;101672.25;5013525;28;20036;-59
2022/05/30 09:54:26;;;;;;;0.80;0.30;;;;;;;21.51;61.15;101663.38;5018672;28;20050;-58
2022/05/30 09:56:57;;;;;;;0.93;0.30;;;;;;;21.54;61.66;101665.78;5013310;28;20508;-59
2022/05/30 09:59:34;;;;;;;1.77;0.20;;;;;;;21.48;61.04;101661.81;5013144;28;20703;-59
2022/05/30 10:02:01;;;;;;;0.75;0.20;;;;;;;21.42;61.02;101672.59;5013287;28;20025;-58
2022/05/30 10:04:29;;;;;;;0.20;0.20;;;;;;;21.49;60.34;101671.72;5011789;28;20032;-59
2022/05/30 10:07:06;;;;;;;0.43;0.40;;;;;;;21.55;61.80;101671.06;5013169;28;20033;-59
2022/05/30 10:09:34;;;;;;;0.98;0.43;;;;;;;21.49;61.53;101673.63;5013197;28;20022;-58
2022/05/30 10:12:00;;;;;;;0.55;0.28;;;;;;;21.62;61.18;101665.75;5013117;28;20476;-58
2022/05/30 10:14:29;;;;;;;1.65;0.20;;;;;;;21.44;60.59;101665.06;5012806;28;20446;-58
2022/05/30 10:16:58;;;;;;;0.50;0.30;;;;;;;21.52;61.17;101671.41;5013016;28;20507;-58
2022/05/30 10:19:31;;;;;;;0.75;0.25;;;;;;;21.53;61.95;101662.19;5012824;28;20036;-59
2022/05/30 10:28:27;;;;;;;1.92;0.30;;;;;;;21.46;61.06;101661.13;5012913;28;20044;-58
2022/05/30 10:31:07;;;;;;;0.52;0.30;;;;;;;21.44;60.75;101651.41;5012821;28;20030;-58
2022/05/30 10:33:54;;;;;;;0.40;0.30;;;;;;;21.50;61.31;101656.16;5012135;28;20026;-59
2022/05/30 10:36:28;;;;;;;0.10;0.10;;;;;;;21.49;61.55;101655.31;5012677;28;20029;-58
2022/05/30 10:39:11;;;;;;;1.55;0.22;;;;;;;21.51;60.83;101649.69;5013052;28;20034;-59
2022/05/30 10:41:49;;;;;;;1.23;0.15;;;;;;;21.48;61.06;101658.22;5013591;28;20125;-59
2022/05/30 10:44:26;;;;;;;0.52;0.45;;;;;;;21.58;60.52;101659.75;5012671;28;20381;-58
2022/05/30 10:46:52;;;;;;;1.45;0.10;;;;;;;21.58;60.38;101658.91;5012782;28;20049;-59
2022/05/30 10:49:24;;;;;;;1.90;0.20;;;;;;;21.59;61.06;101655.16;5012645;28;20053;-58
2022/05/30 10:52:14;;;;;;;0.28;0.10;;;;;;;21.52;61.95;101659.63;5012871;28;20251;-59
2022/05/30 10:54:46;;;;;;;0.43;0.20;;;;;;;21.53;60.01;101655.84;5012479;28;20030;-59
2022/05/30 10:57:25;;;;;;;0.20;0.20;;;;;;;21.59;60.37;101657.88;5012645;28;20022;-59
2022/05/30 11:00:04;;;;;;;0.38;0.20;;;;;;;21.58;60.13;101658.91;5012577;28;20135;-59
2022/05/30 11:02:48;;;;;;;0.17;0.17;;;;;;;21.57;61.82;101651.72;5012252;28;20022;-58
2022/05/30 11:05:21;;;;;;;1.23;0.20;;;;;;;21.55;61.23;101653.78;5012625;28;20033;-59
2022/05/30 11:07:58;;;;;;;0.25;0.20;;;;;;;21.48;61.51;101652.75;5011300;28;20026;-58
2022/05/30 11:10:33;;;;;;;0.47;0.28;;;;;;;21.49;61.24;101643.53;5012270;28;20541;-59
2022/05/30 11:13:38;;;;;;;0.45;0.20;;;;;;;21.57;62.34;101646.25;5012547;28;20075;-58
2022/05/30 11:16:13;;;;;;;0.52;0.10;;;;;;;21.52;61.28;101648.69;4990391;28;20043;-58
2022/05/30 11:18:54;;;;;;;0.52;0.30;;;;;;;21.51;61.38;101646.97;4990294;28;20042;-59
2022/05/30 11:21:46;;;;;;;0.45;0.30;;;;;;;21.58;60.92;101642.50;4990072;28;20045;-59
2022/05/30 11:24:14;;;;;;;0.30;0.17;;;;;;;21.54;61.36;101652.09;4990413;28;20541;-59
2022/05/30 11:26:47;;;;;;;1.50;0.30;;;;;;;21.50;61.80;101645.22;4992084;28;20118;-57
2022/05/30 11:29:34;;;;;;;0.20;0.20;;;;;;;21.49;60.88;101638.06;4991587;28;20026;-59
2022/05/30 11:32:08;;;;;;;0.20;0.20;;;;;;;21.53;61.22;101636.69;4990350;28;20034;-58
2022/05/30 11:34:43;;;;;;;0.35;0.30;;;;;;;21.52;60.90;101638.59;4990012;28;20438;-59
2022/05/30 11:37:42;;;;;;;0.20;0.20;;;;;;;21.50;61.18;101640.63;4990758;28;20034;-58
2022/05/30 11:40:32;;;;;;;0.88;0.30;;;;;;;21.48;62.00;101641.81;4990216;28;20048;-59
2022/05/30 11:43:16;;;;;;;0.35;0.20;;;;;;;21.48;60.26;101641.81;4990334;28;20037;-59
2022/05/30 11:45:44;;;;;;;1.98;0.30;;;;;;;21.52;60.81;101638.59;4991773;28;20520;-59
2022/05/30 11:48:43;;;;;;;1.85;0.30;;;;;;;21.52;62.50;101637.72;4993763;28;20042;-60
2022/05/30 11:51:22;;;;;;;0.30;0.20;;;;;;;21.50;61.45;101637.91;4993901;28;20026;-58
2022/05/30 11:54:09;;;;;;;0.32;0.30;;;;;;;21.60;60.97;101635.81;5012928;28;20038;-58